Карточка аэропорта UNWW

Внимание!
Информация на этой странице в стадии наполнения.
Если вы не увидели какой-то информации, или заметили неточность - пожалуйста сообщите нам!
Спасибо!
Команда RU-STAFF
Название аэропортаСпиченково
Название аэропорта (англ.)Spichenkovo
Превышение1023 ft. (311.8 m.)
Координаты53°48.714', 86°52.704'
Высота перехода800m
Эшелон переходаFL050
Коды ответчика5270-5277
Зона ОрВДНовосибирск РПИ (UNNT)
Данные METARUNWW 291100Z 20006MPS 9999 BKN040CB M05/M11 Q1030 R19/920247 NOSIG RMK QFE745
Проноз погоды (TAF)UNWW 290800Z 2909/0109 21009G20MPS 8000 -SHSN DRSN BKN020CB TEMPO 2909/2915 BKN011CB BECMG 2915/2918 20003G08MPS 2500 -SHSN TEMPO 2918/0103 0500 +SHSN BLSN BKN005 BKN011CB TEMPO 0103/0109 21008G15MPS
NOTAMshow/hide NOTAM
AWOS   TABLE

Информация о ВПП

ВПП Длина ВПП (м.) Покрытие Курс ВПП Частота ILS
012679Цементобетон14 
192679Цементобетон194111.1

Диспетчерские позиции

Позывной Наименование органа УВД Частота
UNWW_APPНовокузнецк-Подход118.6
UNWW_TWRНовокузнецк-Старт121.2



Спутниковое изображение